sensor_id;sensor_type;location;lat;lon;timestamp;P1;durP1;ratioP1;P2;durP2;ratioP2
49422;SDS011;36998;51.974;20.150;2022-10-16T00:00:38;17.27;;;10.25;;
49422;SDS011;36998;51.974;20.150;2022-10-16T00:03:05;16.25;;;9.05;;
49422;SDS011;36998;51.974;20.150;2022-10-16T00:05:31;19.70;;;9.90;;
49422;SDS011;36998;51.974;20.150;2022-10-16T00:07:57;18.73;;;10.10;;
49422;SDS011;36998;51.974;20.150;2022-10-16T00:10:22;16.88;;;10.25;;
49422;SDS011;36998;51.974;20.150;2022-10-16T00:12:48;18.90;;;9.90;;
49422;SDS011;36998;51.974;20.150;2022-10-16T00:15:14;18.42;;;10.30;;
49422;SDS011;36998;51.974;20.150;2022-10-16T00:17:41;23.13;;;11.25;;
49422;SDS011;36998;51.974;20.150;2022-10-16T00:20:06;20.67;;;10.40;;
49422;SDS011;36998;51.974;20.150;2022-10-16T00:22:51;19.00;;;10.88;;
49422;SDS011;36998;51.974;20.150;2022-10-16T00:25:16;19.95;;;10.00;;
49422;SDS011;36998;51.974;20.150;2022-10-16T00:27:42;20.25;;;10.82;;
49422;SDS011;36998;51.974;20.150;2022-10-16T00:30:08;23.38;;;10.20;;
49422;SDS011;36998;51.974;20.150;2022-10-16T00:32:33;19.63;;;10.95;;
49422;SDS011;36998;51.974;20.150;2022-10-16T00:34:59;19.98;;;12.10;;
49422;SDS011;36998;51.974;20.150;2022-10-16T00:37:24;19.40;;;10.80;;
49422;SDS011;36998;51.974;20.150;2022-10-16T00:39:50;19.00;;;11.65;;
49422;SDS011;36998;51.974;20.150;2022-10-16T00:42:16;21.77;;;12.18;;
49422;SDS011;36998;51.974;20.150;2022-10-16T00:44:48;17.33;;;10.43;;
49422;SDS011;36998;51.974;20.150;2022-10-16T00:47:25;22.48;;;11.18;;
49422;SDS011;36998;51.974;20.150;2022-10-16T00:50:07;22.40;;;11.38;;
49422;SDS011;36998;51.974;20.150;2022-10-16T00:52:34;20.30;;;10.43;;
49422;SDS011;36998;51.974;20.150;2022-10-16T00:55:02;21.88;;;11.02;;
49422;SDS011;36998;51.974;20.150;2022-10-16T00:57:29;23.13;;;11.95;;
49422;SDS011;36998;51.974;20.150;2022-10-16T00:59:55;18.02;;;11.45;;
49422;SDS011;36998;51.974;20.150;2022-10-16T01:02:22;24.05;;;12.45;;
49422;SDS011;36998;51.974;20.150;2022-10-16T01:04:48;28.00;;;11.43;;
49422;SDS011;36998;51.974;20.150;2022-10-16T01:13:02;20.00;;;11.95;;
49422;SDS011;36998;51.974;20.150;2022-10-16T01:15:47;18.75;;;11.07;;
49422;SDS011;36998;51.974;20.150;2022-10-16T01:18:22;25.92;;;11.63;;
49422;SDS011;36998;51.974;20.150;2022-10-16T01:21:01;19.55;;;11.95;;
49422;SDS011;36998;51.974;20.150;2022-10-16T01:23:36;24.45;;;12.05;;
49422;SDS011;36998;51.974;20.150;2022-10-16T01:29:24;30.02;;;12.10;;
49422;SDS011;36998;51.974;20.150;2022-10-16T01:31:45;19.42;;;11.52;;
49422;SDS011;36998;51.974;20.150;2022-10-16T01:34:20;25.88;;;12.57;;
49422;SDS011;36998;51.974;20.150;2022-10-16T01:36:55;24.08;;;11.75;;
49422;SDS011;36998;51.974;20.150;2022-10-16T01:39:31;20.92;;;11.18;;
49422;SDS011;36998;51.974;20.150;2022-10-16T01:42:02;18.88;;;11.20;;
49422;SDS011;36998;51.974;20.150;2022-10-16T01:44:33;26.08;;;11.70;;
49422;SDS011;36998;51.974;20.150;2022-10-16T01:47:01;21.08;;;12.43;;
49422;SDS011;36998;51.974;20.150;2022-10-16T01:49:30;21.95;;;11.55;;
49422;SDS011;36998;51.974;20.150;2022-10-16T01:51:59;23.27;;;12.35;;
49422;SDS011;36998;51.974;20.150;2022-10-16T01:54:27;25.35;;;13.40;;
49422;SDS011;36998;51.974;20.150;2022-10-16T01:56:56;22.90;;;12.35;;
49422;SDS011;36998;51.974;20.150;2022-10-16T01:59:24;21.05;;;12.32;;
49422;SDS011;36998;51.974;20.150;2022-10-16T02:01:58;21.20;;;12.30;;
49422;SDS011;36998;51.974;20.150;2022-10-16T02:05:01;24.95;;;12.50;;
49422;SDS011;36998;51.974;20.150;2022-10-16T02:07:23;22.92;;;13.05;;
49422;SDS011;36998;51.974;20.150;2022-10-16T02:09:49;22.80;;;12.93;;
49422;SDS011;36998;51.974;20.150;2022-10-16T02:12:26;23.85;;;13.48;;
49422;SDS011;36998;51.974;20.150;2022-10-16T02:14:55;22.52;;;12.00;;
49422;SDS011;36998;51.974;20.150;2022-10-16T02:17:20;22.17;;;12.57;;
49422;SDS011;36998;51.974;20.150;2022-10-16T02:19:47;24.17;;;13.23;;
49422;SDS011;36998;51.974;20.150;2022-10-16T02:22:22;21.90;;;13.60;;
49422;SDS011;36998;51.974;20.150;2022-10-16T02:27:46;29.17;;;14.45;;
49422;SDS011;36998;51.974;20.150;2022-10-16T02:30:27;25.20;;;13.38;;
49422;SDS011;36998;51.974;20.150;2022-10-16T02:32:58;22.98;;;13.25;;
49422;SDS011;36998;51.974;20.150;2022-10-16T02:35:26;25.08;;;14.43;;
49422;SDS011;36998;51.974;20.150;2022-10-16T02:37:53;28.00;;;13.77;;
49422;SDS011;36998;51.974;20.150;2022-10-16T02:40:19;28.10;;;15.02;;
49422;SDS011;36998;51.974;20.150;2022-10-16T02:42:49;31.40;;;14.38;;
49422;SDS011;36998;51.974;20.150;2022-10-16T02:45:16;28.38;;;13.57;;
49422;SDS011;36998;51.974;20.150;2022-10-16T02:47:42;23.80;;;13.57;;
49422;SDS011;36998;51.974;20.150;2022-10-16T02:50:08;26.70;;;14.05;;
49422;SDS011;36998;51.974;20.150;2022-10-16T02:52:33;29.73;;;13.82;;
49422;SDS011;36998;51.974;20.150;2022-10-16T02:54:59;24.58;;;13.38;;
49422;SDS011;36998;51.974;20.150;2022-10-16T02:57:25;25.08;;;13.18;;
49422;SDS011;36998;51.974;20.150;2022-10-16T02:59:50;24.45;;;13.90;;
49422;SDS011;36998;51.974;20.150;2022-10-16T03:02:16;24.90;;;14.77;;
49422;SDS011;36998;51.974;20.150;2022-10-16T03:04:41;28.38;;;15.68;;
49422;SDS011;36998;51.974;20.150;2022-10-16T03:07:07;24.88;;;14.32;;
49422;SDS011;36998;51.974;20.150;2022-10-16T03:09:32;27.80;;;15.13;;
49422;SDS011;36998;51.974;20.150;2022-10-16T03:11:58;26.40;;;15.45;;
49422;SDS011;36998;51.974;20.150;2022-10-16T03:14:24;31.85;;;14.77;;
49422;SDS011;36998;51.974;20.150;2022-10-16T03:16:49;25.13;;;14.48;;
49422;SDS011;36998;51.974;20.150;2022-10-16T03:19:15;31.80;;;15.85;;
49422;SDS011;36998;51.974;20.150;2022-10-16T03:21:41;29.52;;;14.52;;
49422;SDS011;36998;51.974;20.150;2022-10-16T03:24:07;25.52;;;13.93;;
49422;SDS011;36998;51.974;20.150;2022-10-16T03:26:33;35.05;;;15.07;;
49422;SDS011;36998;51.974;20.150;2022-10-16T03:28:58;31.48;;;15.38;;
49422;SDS011;36998;51.974;20.150;2022-10-16T03:31:24;26.20;;;15.13;;
49422;SDS011;36998;51.974;20.150;2022-10-16T03:33:49;30.15;;;15.38;;
49422;SDS011;36998;51.974;20.150;2022-10-16T03:36:15;36.00;;;15.13;;
49422;SDS011;36998;51.974;20.150;2022-10-16T03:38:40;28.25;;;15.52;;
49422;SDS011;36998;51.974;20.150;2022-10-16T03:41:06;29.27;;;15.32;;
49422;SDS011;36998;51.974;20.150;2022-10-16T03:43:33;30.13;;;15.40;;
49422;SDS011;36998;51.974;20.150;2022-10-16T03:45:58;28.85;;;15.32;;
49422;SDS011;36998;51.974;20.150;2022-10-16T03:48:24;31.42;;;16.48;;
49422;SDS011;36998;51.974;20.150;2022-10-16T03:50:49;43.17;;;17.13;;
49422;SDS011;36998;51.974;20.150;2022-10-16T03:53:16;30.92;;;17.35;;
49422;SDS011;36998;51.974;20.150;2022-10-16T03:55:42;31.92;;;17.13;;
49422;SDS011;36998;51.974;20.150;2022-10-16T03:58:08;33.97;;;17.70;;
49422;SDS011;36998;51.974;20.150;2022-10-16T04:00:33;28.58;;;15.75;;
49422;SDS011;36998;51.974;20.150;2022-10-16T04:02:59;31.17;;;16.17;;
49422;SDS011;36998;51.974;20.150;2022-10-16T04:05:25;35.03;;;16.98;;
49422;SDS011;36998;51.974;20.150;2022-10-16T04:07:51;30.63;;;16.70;;
49422;SDS011;36998;51.974;20.150;2022-10-16T04:10:17;35.20;;;17.48;;
49422;SDS011;36998;51.974;20.150;2022-10-16T04:12:43;30.10;;;16.85;;
49422;SDS011;36998;51.974;20.150;2022-10-16T04:15:09;33.28;;;17.23;;
49422;SDS011;36998;51.974;20.150;2022-10-16T04:17:35;32.22;;;17.35;;
49422;SDS011;36998;51.974;20.150;2022-10-16T04:20:00;31.80;;;17.90;;
49422;SDS011;36998;51.974;20.150;2022-10-16T04:22:26;33.50;;;17.65;;
49422;SDS011;36998;51.974;20.150;2022-10-16T04:24:51;35.35;;;18.75;;
49422;SDS011;36998;51.974;20.150;2022-10-16T04:27:17;37.30;;;17.83;;
49422;SDS011;36998;51.974;20.150;2022-10-16T04:29:42;35.35;;;18.42;;
49422;SDS011;36998;51.974;20.150;2022-10-16T04:32:08;31.38;;;17.42;;
49422;SDS011;36998;51.974;20.150;2022-10-16T04:34:34;28.73;;;16.40;;
49422;SDS011;36998;51.974;20.150;2022-10-16T04:36:59;30.52;;;16.52;;
49422;SDS011;36998;51.974;20.150;2022-10-16T04:39:25;31.33;;;17.60;;
49422;SDS011;36998;51.974;20.150;2022-10-16T04:41:50;29.85;;;16.08;;
49422;SDS011;36998;51.974;20.150;2022-10-16T04:44:16;29.33;;;15.88;;
49422;SDS011;36998;51.974;20.150;2022-10-16T04:46:41;29.27;;;16.13;;
49422;SDS011;36998;51.974;20.150;2022-10-16T04:49:07;31.45;;;15.45;;
49422;SDS011;36998;51.974;20.150;2022-10-16T04:51:32;25.15;;;14.43;;
49422;SDS011;36998;51.974;20.150;2022-10-16T04:53:58;31.50;;;16.38;;
49422;SDS011;36998;51.974;20.150;2022-10-16T04:56:23;29.17;;;15.07;;
49422;SDS011;36998;51.974;20.150;2022-10-16T04:58:49;29.42;;;15.27;;
49422;SDS011;36998;51.974;20.150;2022-10-16T05:01:15;28.30;;;14.98;;
49422;SDS011;36998;51.974;20.150;2022-10-16T05:03:40;29.20;;;15.50;;
49422;SDS011;36998;51.974;20.150;2022-10-16T05:06:06;25.65;;;14.80;;
49422;SDS011;36998;51.974;20.150;2022-10-16T05:08:31;27.83;;;14.73;;
49422;SDS011;36998;51.974;20.150;2022-10-16T05:10:57;26.13;;;14.32;;
49422;SDS011;36998;51.974;20.150;2022-10-16T05:13:22;25.65;;;14.77;;
49422;SDS011;36998;51.974;20.150;2022-10-16T05:15:48;23.23;;;14.65;;
49422;SDS011;36998;51.974;20.150;2022-10-16T05:18:14;24.08;;;13.45;;
49422;SDS011;36998;51.974;20.150;2022-10-16T05:20:41;26.38;;;14.18;;
49422;SDS011;36998;51.974;20.150;2022-10-16T05:23:07;26.45;;;14.60;;
49422;SDS011;36998;51.974;20.150;2022-10-16T05:25:33;23.83;;;15.30;;
49422;SDS011;36998;51.974;20.150;2022-10-16T05:27:58;25.40;;;14.40;;
49422;SDS011;36998;51.974;20.150;2022-10-16T05:30:24;30.80;;;15.63;;
49422;SDS011;36998;51.974;20.150;2022-10-16T05:32:50;22.08;;;14.10;;
49422;SDS011;36998;51.974;20.150;2022-10-16T05:35:16;25.40;;;15.30;;
49422;SDS011;36998;51.974;20.150;2022-10-16T05:37:52;24.48;;;13.48;;
49422;SDS011;36998;51.974;20.150;2022-10-16T05:40:17;28.98;;;14.93;;
49422;SDS011;36998;51.974;20.150;2022-10-16T05:42:43;22.55;;;14.10;;
49422;SDS011;36998;51.974;20.150;2022-10-16T05:45:09;28.08;;;14.52;;
49422;SDS011;36998;51.974;20.150;2022-10-16T05:47:37;21.38;;;12.40;;
49422;SDS011;36998;51.974;20.150;2022-10-16T05:50:03;23.10;;;13.63;;
49422;SDS011;36998;51.974;20.150;2022-10-16T05:52:29;23.02;;;13.10;;
49422;SDS011;36998;51.974;20.150;2022-10-16T05:54:54;22.35;;;13.77;;
49422;SDS011;36998;51.974;20.150;2022-10-16T05:57:20;22.98;;;13.57;;
49422;SDS011;36998;51.974;20.150;2022-10-16T05:59:46;22.98;;;13.90;;
49422;SDS011;36998;51.974;20.150;2022-10-16T06:02:14;23.25;;;14.07;;
49422;SDS011;36998;51.974;20.150;2022-10-16T06:04:40;22.20;;;13.43;;
49422;SDS011;36998;51.974;20.150;2022-10-16T06:07:05;24.20;;;14.57;;
49422;SDS011;36998;51.974;20.150;2022-10-16T06:09:31;22.50;;;13.38;;
49422;SDS011;36998;51.974;20.150;2022-10-16T06:11:56;23.95;;;13.68;;
49422;SDS011;36998;51.974;20.150;2022-10-16T06:14:22;24.98;;;14.13;;
49422;SDS011;36998;51.974;20.150;2022-10-16T06:16:47;27.10;;;13.73;;
49422;SDS011;36998;51.974;20.150;2022-10-16T06:19:13;24.60;;;13.85;;
49422;SDS011;36998;51.974;20.150;2022-10-16T06:21:38;23.35;;;13.45;;
49422;SDS011;36998;51.974;20.150;2022-10-16T06:24:04;20.70;;;13.02;;
49422;SDS011;36998;51.974;20.150;2022-10-16T06:26:30;26.85;;;14.52;;
49422;SDS011;36998;51.974;20.150;2022-10-16T06:28:56;23.38;;;13.52;;
49422;SDS011;36998;51.974;20.150;2022-10-16T06:31:25;21.75;;;13.50;;
49422;SDS011;36998;51.974;20.150;2022-10-16T06:33:53;25.17;;;14.27;;
49422;SDS011;36998;51.974;20.150;2022-10-16T06:36:19;22.70;;;13.27;;
49422;SDS011;36998;51.974;20.150;2022-10-16T06:38:45;20.50;;;12.90;;
49422;SDS011;36998;51.974;20.150;2022-10-16T06:41:11;22.00;;;13.48;;
49422;SDS011;36998;51.974;20.150;2022-10-16T06:43:57;20.85;;;12.85;;
49422;SDS011;36998;51.974;20.150;2022-10-16T06:46:23;20.00;;;13.38;;
49422;SDS011;36998;51.974;20.150;2022-10-16T06:48:50;22.35;;;12.20;;
49422;SDS011;36998;51.974;20.150;2022-10-16T06:51:17;23.65;;;13.02;;
49422;SDS011;36998;51.974;20.150;2022-10-16T06:53:44;20.67;;;12.73;;
49422;SDS011;36998;51.974;20.150;2022-10-16T06:56:18;20.50;;;13.23;;
49422;SDS011;36998;51.974;20.150;2022-10-16T06:58:45;21.88;;;12.02;;
49422;SDS011;36998;51.974;20.150;2022-10-16T07:01:11;22.80;;;12.68;;
49422;SDS011;36998;51.974;20.150;2022-10-16T07:03:38;22.88;;;13.10;;
49422;SDS011;36998;51.974;20.150;2022-10-16T07:06:06;22.17;;;12.82;;
49422;SDS011;36998;51.974;20.150;2022-10-16T07:08:37;23.40;;;12.48;;
49422;SDS011;36998;51.974;20.150;2022-10-16T07:11:04;20.33;;;12.15;;
49422;SDS011;36998;51.974;20.150;2022-10-16T07:13:35;19.88;;;11.48;;
49422;SDS011;36998;51.974;20.150;2022-10-16T07:16:05;25.83;;;10.95;;
49422;SDS011;36998;51.974;20.150;2022-10-16T07:18:35;24.65;;;11.70;;
49422;SDS011;36998;51.974;20.150;2022-10-16T07:23:31;15.02;;;10.80;;
49422;SDS011;36998;51.974;20.150;2022-10-16T07:25:56;26.00;;;12.05;;
49422;SDS011;36998;51.974;20.150;2022-10-16T07:28:22;18.75;;;11.20;;
49422;SDS011;36998;51.974;20.150;2022-10-16T07:30:47;19.23;;;12.02;;
49422;SDS011;36998;51.974;20.150;2022-10-16T07:33:13;20.95;;;11.85;;
49422;SDS011;36998;51.974;20.150;2022-10-16T07:35:47;18.80;;;11.75;;
49422;SDS011;36998;51.974;20.150;2022-10-16T07:38:13;17.67;;;11.63;;
49422;SDS011;36998;51.974;20.150;2022-10-16T07:40:38;20.40;;;11.85;;
49422;SDS011;36998;51.974;20.150;2022-10-16T07:43:25;23.92;;;11.70;;
49422;SDS011;36998;51.974;20.150;2022-10-16T07:45:51;18.83;;;10.88;;
49422;SDS011;36998;51.974;20.150;2022-10-16T07:48:17;16.40;;;11.18;;
49422;SDS011;36998;51.974;20.150;2022-10-16T07:50:43;18.65;;;11.55;;
49422;SDS011;36998;51.974;20.150;2022-10-16T07:53:09;15.65;;;10.63;;
49422;SDS011;36998;51.974;20.150;2022-10-16T07:55:35;17.38;;;10.90;;
49422;SDS011;36998;51.974;20.150;2022-10-16T07:58:00;21.42;;;10.65;;
49422;SDS011;36998;51.974;20.150;2022-10-16T08:00:26;21.17;;;11.48;;
49422;SDS011;36998;51.974;20.150;2022-10-16T08:03:01;21.48;;;11.38;;
49422;SDS011;36998;51.974;20.150;2022-10-16T08:05:27;17.65;;;10.98;;
49422;SDS011;36998;51.974;20.150;2022-10-16T08:07:54;17.67;;;11.07;;
49422;SDS011;36998;51.974;20.150;2022-10-16T08:10:21;15.48;;;10.43;;
49422;SDS011;36998;51.974;20.150;2022-10-16T08:13:08;17.67;;;11.00;;
49422;SDS011;36998;51.974;20.150;2022-10-16T08:15:34;17.52;;;11.13;;
49422;SDS011;36998;51.974;20.150;2022-10-16T08:18:04;18.27;;;11.10;;
49422;SDS011;36998;51.974;20.150;2022-10-16T08:20:31;17.15;;;11.18;;
49422;SDS011;36998;51.974;20.150;2022-10-16T08:22:57;16.38;;;10.52;;
49422;SDS011;36998;51.974;20.150;2022-10-16T08:25:23;20.65;;;10.43;;
49422;SDS011;36998;51.974;20.150;2022-10-16T08:27:49;16.70;;;10.73;;
49422;SDS011;36998;51.974;20.150;2022-10-16T08:30:15;18.27;;;11.10;;
49422;SDS011;36998;51.974;20.150;2022-10-16T08:32:41;17.40;;;10.73;;
49422;SDS011;36998;51.974;20.150;2022-10-16T08:35:08;20.67;;;11.52;;
49422;SDS011;36998;51.974;20.150;2022-10-16T08:37:37;17.88;;;10.32;;
49422;SDS011;36998;51.974;20.150;2022-10-16T08:40:04;16.00;;;11.20;;
49422;SDS011;36998;51.974;20.150;2022-10-16T08:42:41;15.02;;;11.40;;
49422;SDS011;36998;51.974;20.150;2022-10-16T08:45:30;18.83;;;10.95;;
49422;SDS011;36998;51.974;20.150;2022-10-16T08:48:26;19.23;;;11.23;;
49422;SDS011;36998;51.974;20.150;2022-10-16T08:50:56;17.90;;;10.25;;
49422;SDS011;36998;51.974;20.150;2022-10-16T08:53:29;19.58;;;11.10;;
49422;SDS011;36998;51.974;20.150;2022-10-16T08:58:27;23.70;;;11.27;;
49422;SDS011;36998;51.974;20.150;2022-10-16T09:00:56;21.35;;;11.68;;
49422;SDS011;36998;51.974;20.150;2022-10-16T09:03:32;18.75;;;11.75;;
49422;SDS011;36998;51.974;20.150;2022-10-16T09:09:12;18.42;;;11.38;;
49422;SDS011;36998;51.974;20.150;2022-10-16T09:12:14;20.48;;;11.18;;
49422;SDS011;36998;51.974;20.150;2022-10-16T09:14:54;21.83;;;11.23;;
49422;SDS011;36998;51.974;20.150;2022-10-16T09:17:26;18.25;;;11.40;;
49422;SDS011;36998;51.974;20.150;2022-10-16T09:20:09;17.30;;;10.10;;
49422;SDS011;36998;51.974;20.150;2022-10-16T09:22:43;19.67;;;9.95;;
49422;SDS011;36998;51.974;20.150;2022-10-16T09:25:19;18.63;;;10.63;;
49422;SDS011;36998;51.974;20.150;2022-10-16T09:27:48;16.92;;;10.57;;
49422;SDS011;36998;51.974;20.150;2022-10-16T09:30:20;18.65;;;10.90;;
49422;SDS011;36998;51.974;20.150;2022-10-16T09:32:47;16.92;;;11.20;;
49422;SDS011;36998;51.974;20.150;2022-10-16T09:35:17;15.07;;;10.10;;
49422;SDS011;36998;51.974;20.150;2022-10-16T09:37:47;17.52;;;9.85;;
49422;SDS011;36998;51.974;20.150;2022-10-16T09:40:28;14.67;;;9.80;;
49422;SDS011;36998;51.974;20.150;2022-10-16T09:42:57;16.05;;;10.38;;
49422;SDS011;36998;51.974;20.150;2022-10-16T09:46:00;16.00;;;9.98;;
49422;SDS011;36998;51.974;20.150;2022-10-16T09:48:34;14.00;;;9.80;;
49422;SDS011;36998;51.974;20.150;2022-10-16T09:51:03;16.90;;;9.52;;
49422;SDS011;36998;51.974;20.150;2022-10-16T09:53:43;18.98;;;9.95;;
49422;SDS011;36998;51.974;20.150;2022-10-16T09:56:11;15.38;;;10.05;;
49422;SDS011;36998;51.974;20.150;2022-10-16T09:58:42;16.27;;;10.33;;
49422;SDS011;36998;51.974;20.150;2022-10-16T10:01:15;16.77;;;8.98;;
49422;SDS011;36998;51.974;20.150;2022-10-16T10:03:41;14.32;;;10.05;;
49422;SDS011;36998;51.974;20.150;2022-10-16T10:06:43;43.78;;;10.82;;
49422;SDS011;36998;51.974;20.150;2022-10-16T10:09:21;13.27;;;9.10;;
49422;SDS011;36998;51.974;20.150;2022-10-16T10:12:22;13.27;;;8.90;;
49422;SDS011;36998;51.974;20.150;2022-10-16T10:14:50;14.10;;;9.25;;
49422;SDS011;36998;51.974;20.150;2022-10-16T10:17:21;14.45;;;8.40;;
49422;SDS011;36998;51.974;20.150;2022-10-16T10:20:00;17.08;;;9.77;;
49422;SDS011;36998;51.974;20.150;2022-10-16T10:22:42;13.93;;;8.95;;
49422;SDS011;36998;51.974;20.150;2022-10-16T10:30:44;13.70;;;8.48;;
49422;SDS011;36998;51.974;20.150;2022-10-16T10:33:19;15.93;;;9.43;;
49422;SDS011;36998;51.974;20.150;2022-10-16T10:42:00;15.15;;;9.75;;
49422;SDS011;36998;51.974;20.150;2022-10-16T10:44:52;17.25;;;9.70;;
49422;SDS011;36998;51.974;20.150;2022-10-16T10:47:36;13.68;;;9.38;;
49422;SDS011;36998;51.974;20.150;2022-10-16T10:50:18;15.55;;;9.45;;
49422;SDS011;36998;51.974;20.150;2022-10-16T10:52:52;16.83;;;9.77;;
49422;SDS011;36998;51.974;20.150;2022-10-16T10:55:28;16.02;;;10.65;;
49422;SDS011;36998;51.974;20.150;2022-10-16T10:58:10;14.32;;;9.00;;
49422;SDS011;36998;51.974;20.150;2022-10-16T11:03:27;15.77;;;9.68;;
49422;SDS011;36998;51.974;20.150;2022-10-16T11:06:07;19.10;;;9.77;;
49422;SDS011;36998;51.974;20.150;2022-10-16T11:08:45;15.65;;;9.40;;
49422;SDS011;36998;51.974;20.150;2022-10-16T11:11:18;15.48;;;9.90;;
49422;SDS011;36998;51.974;20.150;2022-10-16T11:14:19;14.88;;;9.75;;
49422;SDS011;36998;51.974;20.150;2022-10-16T11:16:53;13.55;;;9.23;;
49422;SDS011;36998;51.974;20.150;2022-10-16T11:19:42;15.50;;;9.18;;
49422;SDS011;36998;51.974;20.150;2022-10-16T11:22:19;19.10;;;8.50;;
49422;SDS011;36998;51.974;20.150;2022-10-16T11:25:14;13.00;;;8.95;;
49422;SDS011;36998;51.974;20.150;2022-10-16T11:30:19;15.05;;;8.30;;
49422;SDS011;36998;51.974;20.150;2022-10-16T11:32:53;12.98;;;8.70;;
49422;SDS011;36998;51.974;20.150;2022-10-16T11:35:42;15.50;;;7.55;;
49422;SDS011;36998;51.974;20.150;2022-10-16T11:38:20;10.32;;;7.07;;
49422;SDS011;36998;51.974;20.150;2022-10-16T11:40:53;10.85;;;7.30;;
49422;SDS011;36998;51.974;20.150;2022-10-16T11:43:34;12.60;;;7.35;;
49422;SDS011;36998;51.974;20.150;2022-10-16T11:46:13;10.85;;;7.43;;
49422;SDS011;36998;51.974;20.150;2022-10-16T11:49:25;11.70;;;6.53;;
49422;SDS011;36998;51.974;20.150;2022-10-16T11:51:38;12.10;;;6.47;;
49422;SDS011;36998;51.974;20.150;2022-10-16T11:54:19;9.38;;;6.38;;
49422;SDS011;36998;51.974;20.150;2022-10-16T11:56:50;11.23;;;5.80;;
49422;SDS011;36998;51.974;20.150;2022-10-16T12:05:24;11.18;;;5.97;;
49422;SDS011;36998;51.974;20.150;2022-10-16T12:08:06;11.13;;;6.03;;
49422;SDS011;36998;51.974;20.150;2022-10-16T12:10:35;8.25;;;5.80;;
49422;SDS011;36998;51.974;20.150;2022-10-16T12:13:47;8.18;;;5.40;;
49422;SDS011;36998;51.974;20.150;2022-10-16T12:16:05;8.63;;;4.72;;
49422;SDS011;36998;51.974;20.150;2022-10-16T12:18:38;7.00;;;4.72;;
49422;SDS011;36998;51.974;20.150;2022-10-16T12:21:09;7.25;;;5.32;;
49422;SDS011;36998;51.974;20.150;2022-10-16T12:23:45;6.30;;;5.30;;
49422;SDS011;36998;51.974;20.150;2022-10-16T12:26:13;9.57;;;5.22;;
49422;SDS011;36998;51.974;20.150;2022-10-16T12:28:39;5.47;;;4.50;;
49422;SDS011;36998;51.974;20.150;2022-10-16T12:31:06;6.45;;;4.90;;
49422;SDS011;36998;51.974;20.150;2022-10-16T12:33:36;7.53;;;4.90;;
49422;SDS011;36998;51.974;20.150;2022-10-16T12:36:05;7.55;;;5.25;;
49422;SDS011;36998;51.974;20.150;2022-10-16T12:38:47;6.85;;;4.57;;
49422;SDS011;36998;51.974;20.150;2022-10-16T12:41:30;8.07;;;4.43;;
49422;SDS011;36998;51.974;20.150;2022-10-16T12:43:57;5.45;;;4.35;;
49422;SDS011;36998;51.974;20.150;2022-10-16T12:46:37;5.93;;;4.00;;
49422;SDS011;36998;51.974;20.150;2022-10-16T12:51:34;5.82;;;4.68;;
49422;SDS011;36998;51.974;20.150;2022-10-16T12:54:03;8.13;;;4.50;;
49422;SDS011;36998;51.974;20.150;2022-10-16T12:59:21;6.90;;;4.88;;
49422;SDS011;36998;51.974;20.150;2022-10-16T13:02:02;7.00;;;4.82;;
49422;SDS011;36998;51.974;20.150;2022-10-16T13:07:43;8.35;;;5.63;;
49422;SDS011;36998;51.974;20.150;2022-10-16T13:10:26;9.48;;;5.68;;
49422;SDS011;36998;51.974;20.150;2022-10-16T13:15:47;13.13;;;7.82;;
49422;SDS011;36998;51.974;20.150;2022-10-16T13:24:11;9.70;;;6.30;;
49422;SDS011;36998;51.974;20.150;2022-10-16T13:26:56;13.52;;;6.05;;
49422;SDS011;36998;51.974;20.150;2022-10-16T13:29:30;9.30;;;5.53;;
49422;SDS011;36998;51.974;20.150;2022-10-16T13:31:58;9.18;;;6.18;;
49422;SDS011;36998;51.974;20.150;2022-10-16T13:34:26;10.55;;;6.35;;
49422;SDS011;36998;51.974;20.150;2022-10-16T13:36:52;11.80;;;6.30;;
49422;SDS011;36998;51.974;20.150;2022-10-16T13:39:23;11.63;;;6.60;;
49422;SDS011;36998;51.974;20.150;2022-10-16T13:44:42;11.23;;;5.65;;
49422;SDS011;36998;51.974;20.150;2022-10-16T13:47:17;12.38;;;6.65;;
49422;SDS011;36998;51.974;20.150;2022-10-16T13:49:44;12.43;;;6.38;;
49422;SDS011;36998;51.974;20.150;2022-10-16T13:52:18;10.50;;;6.22;;
49422;SDS011;36998;51.974;20.150;2022-10-16T13:54:45;14.05;;;6.70;;
49422;SDS011;36998;51.974;20.150;2022-10-16T13:57:15;10.48;;;5.53;;
49422;SDS011;36998;51.974;20.150;2022-10-16T13:59:41;12.20;;;6.75;;
49422;SDS011;36998;51.974;20.150;2022-10-16T14:02:21;12.15;;;6.07;;
49422;SDS011;36998;51.974;20.150;2022-10-16T14:04:51;10.07;;;5.57;;
49422;SDS011;36998;51.974;20.150;2022-10-16T14:07:23;13.45;;;5.38;;
49422;SDS011;36998;51.974;20.150;2022-10-16T14:09:51;14.90;;;6.20;;
49422;SDS011;36998;51.974;20.150;2022-10-16T14:12:17;10.70;;;6.10;;
49422;SDS011;36998;51.974;20.150;2022-10-16T14:14:44;11.40;;;5.45;;
49422;SDS011;36998;51.974;20.150;2022-10-16T14:17:29;11.52;;;5.85;;
49422;SDS011;36998;51.974;20.150;2022-10-16T14:19:58;8.93;;;5.43;;
49422;SDS011;36998;51.974;20.150;2022-10-16T14:22:33;8.95;;;6.25;;
49422;SDS011;36998;51.974;20.150;2022-10-16T14:25:02;11.00;;;6.18;;
49422;SDS011;36998;51.974;20.150;2022-10-16T14:27:45;10.10;;;6.35;;
49422;SDS011;36998;51.974;20.150;2022-10-16T14:30:22;12.77;;;6.65;;
49422;SDS011;36998;51.974;20.150;2022-10-16T14:32:55;11.38;;;6.20;;
49422;SDS011;36998;51.974;20.150;2022-10-16T14:35:26;10.30;;;6.68;;
49422;SDS011;36998;51.974;20.150;2022-10-16T14:37:56;10.23;;;5.85;;
49422;SDS011;36998;51.974;20.150;2022-10-16T14:40:23;9.65;;;6.13;;
49422;SDS011;36998;51.974;20.150;2022-10-16T14:42:53;12.38;;;6.68;;
49422;SDS011;36998;51.974;20.150;2022-10-16T14:45:24;14.95;;;6.90;;
49422;SDS011;36998;51.974;20.150;2022-10-16T14:47:54;12.40;;;6.57;;
49422;SDS011;36998;51.974;20.150;2022-10-16T14:52:48;14.98;;;6.70;;
49422;SDS011;36998;51.974;20.150;2022-10-16T14:55:14;9.15;;;6.55;;
49422;SDS011;36998;51.974;20.150;2022-10-16T14:57:40;13.80;;;7.43;;
49422;SDS011;36998;51.974;20.150;2022-10-16T15:00:14;11.98;;;6.55;;
49422;SDS011;36998;51.974;20.150;2022-10-16T15:02:41;12.60;;;7.57;;
49422;SDS011;36998;51.974;20.150;2022-10-16T15:07:39;11.02;;;7.15;;
49422;SDS011;36998;51.974;20.150;2022-10-16T15:10:04;13.48;;;7.95;;
49422;SDS011;36998;51.974;20.150;2022-10-16T15:12:30;11.13;;;7.65;;
49422;SDS011;36998;51.974;20.150;2022-10-16T15:14:58;14.05;;;8.00;;
49422;SDS011;36998;51.974;20.150;2022-10-16T15:17:25;15.80;;;7.40;;
49422;SDS011;36998;51.974;20.150;2022-10-16T15:19:50;12.35;;;7.43;;
49422;SDS011;36998;51.974;20.150;2022-10-16T15:22:16;15.80;;;7.28;;
49422;SDS011;36998;51.974;20.150;2022-10-16T15:24:42;15.90;;;9.07;;
49422;SDS011;36998;51.974;20.150;2022-10-16T15:27:08;11.23;;;7.70;;
49422;SDS011;36998;51.974;20.150;2022-10-16T15:29:34;17.15;;;9.05;;
49422;SDS011;36998;51.974;20.150;2022-10-16T15:31:59;15.07;;;8.48;;
49422;SDS011;36998;51.974;20.150;2022-10-16T15:34:25;14.73;;;9.40;;
49422;SDS011;36998;51.974;20.150;2022-10-16T15:36:50;15.32;;;9.02;;
49422;SDS011;36998;51.974;20.150;2022-10-16T15:39:17;17.98;;;9.50;;